Main page
Satellite images 10-day forecastsClimateMarine weather Cyclones Lightning AirportsFAQ Newsletter About
Weather : Europe Africa North America South America Asia Australia-Oceania Others
Languages Contact

Lisbon, Portugal

Lisbon Portela Airport

latitude: 38-46N, longitude: 009-08W, elevation: 114 m


METAR: LPPT 041130Z 36005KT 250V060 9999 FEW031 26/18 Q1021
TAF: LPPT 041100Z 0412/0518 34008KT CAVOK BECMG 0414/0416 34015KT BECMG 0502/0505 34008KT BECMG 0510/0512 34015KT

Time: 12:45 (11:45 UTC)

Current weather observation

The report was made 15 minutes ago, at 11:30 UTC
Wind 5 kt from the North, varying between West/Southwest and East/Northeast
Temperature 26°C
Humidity 61%
Pressure 1021 hPa
Visibility 10 km or more
Few clouds at a height of 3100 ft

Change units

Forecast

The report was made 45 minutes ago, at 11:00 UTC
Forecast valid from 04 at 12 UTC to 05 at 18 UTC
Wind 8 kt from the North/Northwest
Visibility 10 km or more
no clouds below 1500 m and no cumulonimbus
Becoming
from 04 at 14 UTC to 04 at 16 UTC
Wind 15 kt from the North/Northwest
Becoming
from 05 at 02 UTC to 05 at 05 UTC
Wind 8 kt from the North/Northwest
Becoming
from 05 at 10 UTC to 05 at 12 UTC
Wind 15 kt from the North/Northwest
The information on this site is subject to a disclaimer
Weather : Europe Africa North America South America Asia Australia-Oceania Others
Satellite images 10-day forecastsClimateMarine weather Cyclones Lightning AirportsFAQ Languages Contact Newsletter About